Sonderborg, Denmark
Current Conditions -  °F | °C
As of 6:50 PM on Wednesday 28 Jan 2015 (Local Time) from EKSB Reporting Station
Light Rain Light Rain  
Wind Chill: 29°   Ceiling: 1200
Heat Index: 39°   Visibility: 5mi
Dew Point: 37°   Wind: 23mph
Humidity: 93%   Direction: 210°SSW
Pressure: 29.03"   Gusts: 39mph
Location:  54.96°N, 9.79°E
Report Text: EKSB 281750Z 21020G34KT 8000 -RA FEW008 BKN012 04/03 Q0983
Loading
Personal Weather Stations






























Interactive Weather Map New forecast layout! Learn more

10-Day Weather Forecast

Advertisements
Track Severe Weather on mobile